Time;durP1;ratioP1;P1;durP2;ratioP2;P2;SDS_P1;SDS_P2;PMS_P1;PMS_P2;Temp;Humidity;BMP_temperature;BMP_pressure;BME280_temperature;BME280_humidity;BME280_pressure;Samples;Min_cycle;Max_cycle;Signal;HPM_P1;HPM_P2
2022/04/26 03:37:05;;;;;;;;;;;;;;;10.50;0.00;60892.56;4742722;29;19931;-87
2022/04/26 03:39:44;;;;;;;;;;;;;;;10.49;0.00;60892.56;4734494;29;19931;-86
2022/04/26 03:42:23;;;;;;;;;;;;;;;10.50;0.00;60892.56;4718001;29;19919;-86
2022/04/26 03:45:02;;;;;;;;;;;;;;;10.48;0.00;60892.56;4716189;29;19916;-86
2022/04/26 03:47:41;;;;;;;;;;;;;;;10.48;0.00;60892.56;4713838;29;19923;-85
2022/04/26 03:50:21;;;;;;;;;;;;;;;10.50;0.00;60892.56;4714950;29;19919;-86
2022/04/26 03:53:00;;;;;;;;;;;;;;;10.47;0.00;60892.56;4734708;29;19919;-85
2022/04/26 03:55:39;;;;;;;;;;;;;;;10.48;0.00;60892.56;4715258;29;19924;-85
2022/04/26 03:58:18;;;;;;;;;;;;;;;187.52;0.00;60892.56;4721848;29;19920;-86
2022/04/26 04:00:57;;;;;;;;;;;;;;;10.50;0.00;60892.56;4727695;29;19920;-85
2022/04/26 04:03:36;;;;;;;;;;;;;;;10.68;0.00;60892.56;4726483;29;19919;-86
2022/04/26 04:06:15;;;;;;;;;;;;;;;-145.06;0.00;60892.56;4732366;29;19920;-85
2022/04/26 04:08:54;;;;;;;;;;;;;;;10.50;0.00;60892.56;4707764;29;19927;-85
2022/04/26 04:11:33;;;;;;;;;;;;;;;10.49;0.00;60892.56;4713247;29;19970;-85
2022/04/26 04:14:14;;;;;;;;;;;;;;;10.50;0.00;60892.56;4706975;29;20564;-86
2022/04/26 04:16:55;;;;;;;;;;;;;;;10.51;0.00;60892.56;4705017;29;19919;-85
2022/04/26 04:19:34;;;;;;;;;;;;;;;10.51;0.00;60892.56;4727962;29;19923;-86
2022/04/26 04:22:14;;;;;;;;;;;;;;;10.52;0.00;60892.56;4729215;29;19986;-84
2022/04/26 04:24:53;;;;;;;;;;;;;;;10.52;0.00;60892.56;4723790;29;19919;-85
2022/04/26 04:27:32;;;;;;;;;;;;;;;10.68;0.00;60892.56;4717852;29;19970;-85
2022/04/26 04:30:11;;;;;;;;;;;;;;;10.56;0.00;60892.56;4727254;29;20393;-85
2022/04/26 04:32:50;;;;;;;;;;;;;;;10.54;0.00;60892.56;4704876;29;20343;-85
2022/04/26 04:35:29;;;;;;;;;;;;;;;10.51;0.00;60892.56;4712378;29;19920;-86
2022/04/26 04:38:08;;;;;;;;;;;;;;;10.52;0.00;60892.56;4710332;29;20422;-87
2022/04/26 04:40:47;;;;;;;;;;;;;;;10.51;0.00;60892.56;4709530;29;19923;-87
2022/04/26 04:43:26;;;;;;;;;;;;;;;10.52;0.00;60892.56;4730788;29;20271;-85
2022/04/26 04:46:05;;;;;;;;;;;;;;;10.51;0.00;60892.56;4710399;29;19924;-87
2022/04/26 04:48:44;;;;;;;;;;;;;;;10.52;0.00;60892.56;4722371;29;19932;-86
2022/04/26 04:51:23;;;;;;;;;;;;;;;10.68;0.00;60892.56;4705045;29;20484;-86
2022/04/26 04:54:02;;;;;;;;;;;;;;;10.50;0.00;60892.56;4708332;29;20651;-87
2022/04/26 04:56:41;;;;;;;;;;;;;;;-145.06;0.00;60892.56;4713031;29;19919;-87
2022/04/26 04:59:20;;;;;;;;;;;;;;;10.51;0.00;60892.56;4719986;29;19923;-86
2022/04/26 05:01:59;;;;;;;;;;;;;;;10.52;0.00;60892.56;4721812;29;19920;-86
2022/04/26 05:04:39;;;;;;;;;;;;;;;-145.06;0.00;60892.56;4714595;29;19919;-86
2022/04/26 05:07:18;;;;;;;;;;;;;;;-145.06;0.00;60892.56;4722758;29;20386;-86
2022/04/26 05:09:58;;;;;;;;;;;;;;;-145.06;0.00;60892.56;4704974;29;20521;-87
2022/04/26 05:12:37;;;;;;;;;;;;;;;-145.06;0.00;60892.56;4711582;29;20002;-86
2022/04/26 05:15:16;;;;;;;;;;;;;;;-145.06;0.00;60892.56;4709970;29;20259;-87
2022/04/26 05:17:55;;;;;;;;;;;;;;;-145.06;0.00;60892.56;4725724;29;19924;-86
2022/04/26 05:20:34;;;;;;;;;;;;;;;-145.06;0.00;60892.56;4710538;29;20370;-86
2022/04/26 05:26:10;;;;;;;;;;;;;;;-145.06;0.00;60892.56;4727005;29;19923;-87
2022/04/26 05:28:49;;;;;;;;;;;;;;;-145.06;0.00;60892.56;4712955;29;20030;-87
2022/04/26 05:31:28;;;;;;;;;;;;;;;10.58;0.00;60892.56;4716931;29;20282;-87
2022/04/26 05:34:07;;;;;;;;;;;;;;;-145.06;0.00;60892.56;4708501;29;19919;-87
2022/04/26 05:36:46;;;;;;;;;;;;;;;10.52;0.00;60892.56;4714134;29;20259;-86
2022/04/26 05:39:25;;;;;;;;;;;;;;;10.68;0.00;60892.56;4711175;29;20373;-86
2022/04/26 05:42:04;;;;;;;;;;;;;;;10.38;0.00;60892.56;4715161;29;20417;-86
2022/04/26 05:44:43;;;;;;;;;;;;;;;-145.06;0.00;60892.56;4711169;29;20409;-86
2022/04/26 05:47:22;;;;;;;;;;;;;;;-145.06;0.00;60892.56;4709822;29;19923;-86
2022/04/26 05:50:02;;;;;;;;;;;;;;;-145.06;0.00;60892.56;4730088;29;20010;-86
2022/04/26 05:52:40;;;;;;;;;;;;;;;-145.06;0.00;60892.56;4726562;29;19915;-86
2022/04/26 05:55:19;;;;;;;;;;;;;;;-145.06;0.00;60892.56;4717878;29;19915;-87
2022/04/26 05:57:58;;;;;;;;;;;;;;;-145.06;0.00;60892.56;4712004;29;20514;-86
2022/04/26 06:00:37;;;;;;;;;;;;;;;-145.06;0.00;60892.56;4719083;29;20002;-85
2022/04/26 06:03:16;;;;;;;;;;;;;;;-145.06;0.00;60892.56;4710408;29;19923;-86
2022/04/26 06:05:57;;;;;;;;;;;;;;;-145.06;0.00;60892.56;4727426;29;19916;-86
2022/04/26 06:08:35;;;;;;;;;;;;;;;-145.06;0.00;60892.56;4712168;29;19924;-86
2022/04/26 06:11:15;;;;;;;;;;;;;;;-145.06;0.00;60892.56;4711807;29;19927;-86
2022/04/26 06:13:54;;;;;;;;;;;;;;;-145.06;0.00;60892.56;4730847;29;20271;-86
2022/04/26 06:16:33;;;;;;;;;;;;;;;-145.06;0.00;60892.56;4713915;29;19955;-87
2022/04/26 06:19:12;;;;;;;;;;;;;;;-145.06;0.00;60892.56;4709046;29;20295;-86
2022/04/26 06:21:51;;;;;;;;;;;;;;;-145.06;0.00;60892.56;4722169;29;19920;-86
2022/04/26 06:24:30;;;;;;;;;;;;;;;-145.06;0.00;60892.56;4726264;29;19920;-87
2022/04/26 06:27:09;;;;;;;;;;;;;;;-145.06;0.00;60892.56;4714819;29;20378;-86
2022/04/26 06:29:48;;;;;;;;;;;;;;;-145.06;0.00;60892.56;4724481;29;20429;-87
2022/04/26 06:32:27;;;;;;;;;;;;;;;-145.06;0.00;60892.56;4712738;29;19931;-86
2022/04/26 06:35:06;;;;;;;;;;;;;;;-145.06;0.00;60892.56;4713234;29;20278;-86
2022/04/26 06:37:45;;;;;;;;;;;;;;;-145.06;0.00;60892.56;4726471;29;19920;-86
2022/04/26 06:40:24;;;;;;;;;;;;;;;-145.06;0.00;60892.56;4708272;29;20397;-87
2022/04/26 06:43:03;;;;;;;;;;;;;;;-145.06;0.00;60892.56;4735650;29;20405;-86
2022/04/26 06:45:44;;;;;;;;;;;;;;;-145.06;0.00;60892.56;4713747;29;19915;-87
2022/04/26 06:48:23;;;;;;;;;;;;;;;-145.06;0.00;60892.56;4722267;29;19924;-87
2022/04/26 06:51:02;;;;;;;;;;;;;;;-145.06;0.00;60892.56;4716456;29;19995;-87
2022/04/26 06:53:42;;;;;;;;;;;;;;;-145.06;0.00;60892.56;4746246;29;19920;-86
2022/04/26 06:56:21;;;;;;;;;;;;;;;-145.06;0.00;60892.56;4695523;29;19916;-87
2022/04/26 06:59:00;;;;;;;;;;;;;;;-145.06;0.00;60892.56;4714530;29;20001;-87
2022/04/26 07:01:39;;;;;;;;;;;;;;;-145.06;0.00;60892.56;4708750;29;20366;-87
2022/04/26 07:04:19;;;;;;;;;;;;;;;-145.06;0.00;60892.56;4712093;29;19974;-86
2022/04/26 07:06:58;;;;;;;;;;;;;;;-145.06;0.00;60892.56;4706882;29;19924;-86
2022/04/26 07:09:38;;;;;;;;;;;;;;;-145.06;0.00;60892.56;4712591;29;19959;-87
2022/04/26 07:12:16;;;;;;;;;;;;;;;-145.06;0.00;60892.56;4725054;29;20022;-87
2022/04/26 07:14:56;;;;;;;;;;;;;;;9.38;0.00;60892.56;4706715;29;20022;-86
2022/04/26 07:17:37;;;;;;;;;;;;;;;9.38;0.00;60892.56;4704340;29;20004;-86
2022/04/26 07:20:16;;;;;;;;;;;;;;;9.37;0.00;60892.56;4706694;29;19920;-86
2022/04/26 07:22:56;;;;;;;;;;;;;;;187.52;0.00;60892.56;4727780;29;19919;-87
2022/04/26 07:25:34;;;;;;;;;;;;;;;9.38;0.00;60892.56;4710512;29;20453;-86
2022/04/26 07:28:13;;;;;;;;;;;;;;;9.38;0.00;60892.56;4716547;29;19924;-87
2022/04/26 07:30:53;;;;;;;;;;;;;;;10.68;0.00;60892.56;4706740;29;19923;-86
2022/04/26 07:36:29;;;;;;;;;;;;;;;9.38;0.00;60892.56;4724146;29;19919;-86
2022/04/26 07:39:08;;;;;;;;;;;;;;;187.52;0.00;60892.56;4705472;29;19919;-87
2022/04/26 07:41:48;;;;;;;;;;;;;;;9.38;0.00;60892.56;4708274;29;20263;-86
2022/04/26 07:44:26;;;;;;;;;;;;;;;9.34;0.00;60892.56;4711308;29;19919;-87
2022/04/26 07:47:05;;;;;;;;;;;;;;;9.32;0.00;60892.56;4704670;29;19955;-87
2022/04/26 07:49:44;;;;;;;;;;;;;;;9.34;0.00;60892.56;4734799;29;19932;-87
2022/04/26 07:52:23;;;;;;;;;;;;;;;9.38;0.00;60892.56;4710800;29;19915;-86
2022/04/26 07:55:03;;;;;;;;;;;;;;;-145.06;0.00;60892.56;4713032;29;19919;-86
2022/04/26 07:57:42;;;;;;;;;;;;;;;-145.06;0.00;60892.56;4709247;29;19923;-87
2022/04/26 08:00:21;;;;;;;;;;;;;;;-145.06;0.00;60892.56;4709998;29;20366;-87
2022/04/26 08:03:02;;;;;;;;;;;;;;;-145.06;0.00;60892.56;4711001;29;19978;-87
2022/04/26 08:05:41;;;;;;;;;;;;;;;-145.06;0.00;60892.56;4695491;29;20390;-87
2022/04/26 08:08:20;;;;;;;;;;;;;;;-145.06;0.00;60892.56;4714982;29;19924;-87
2022/04/26 08:11:00;;;;;;;;;;;;;;;-145.06;0.00;60892.56;4707107;29;19919;-88
2022/04/26 08:13:39;;;;;;;;;;;;;;;-145.06;0.00;60892.56;4709503;29;19919;-87
2022/04/26 08:16:18;;;;;;;;;;;;;;;-145.06;0.00;60892.56;4731876;29;19919;-87
2022/04/26 08:18:58;;;;;;;;;;;;;;;-145.06;0.00;60892.56;4701263;29;20279;-86
2022/04/26 08:21:37;;;;;;;;;;;;;;;-145.06;0.00;60892.56;4709945;29;19970;-86
2022/04/26 08:27:25;;;;;;;;;;;;;;;-145.06;0.00;60892.56;4724410;29;19923;-86
2022/04/26 08:30:04;;;;;;;;;;;;;;;-145.06;0.00;60892.56;4717120;29;19924;-87
2022/04/26 08:32:44;;;;;;;;;;;;;;;-145.06;0.00;60892.56;4710931;29;19924;-87
2022/04/26 08:35:27;;;;;;;;;;;;;;;-145.06;0.00;60892.56;4727509;29;19919;-86
2022/04/26 08:38:06;;;;;;;;;;;;;;;-145.06;0.00;60892.56;4706522;29;19915;-86
2022/04/26 08:40:45;;;;;;;;;;;;;;;-145.06;0.00;60892.56;4704633;29;20322;-86
2022/04/26 08:43:23;;;;;;;;;;;;;;;-145.06;0.00;60892.56;4727407;29;19919;-86
2022/04/26 08:46:03;;;;;;;;;;;;;;;-145.06;0.00;60892.56;4718601;29;19923;-86
2022/04/26 08:51:40;;;;;;;;;;;;;;;-145.06;0.00;60892.56;4711982;29;20014;-87
2022/04/26 08:54:19;;;;;;;;;;;;;;;-145.06;0.00;60892.56;4713590;29;19927;-86
2022/04/26 08:56:59;;;;;;;;;;;;;;;-145.06;0.00;60892.56;4719074;29;19923;-86
2022/04/26 08:59:51;;;;;;;;;;;;;;;-145.06;0.00;60892.56;4729917;29;19920;-87
2022/04/26 09:02:30;;;;;;;;;;;;;;;-145.06;0.00;60892.56;4713350;29;19947;-86
2022/04/26 09:05:11;;;;;;;;;;;;;;;-145.06;0.00;60892.56;4716677;29;19928;-86
2022/04/26 09:07:50;;;;;;;;;;;;;;;-145.06;0.00;60892.56;4707930;29;19924;-86
2022/04/26 09:10:29;;;;;;;;;;;;;;;-145.06;0.00;60892.56;4700031;29;19924;-86
2022/04/26 09:13:09;;;;;;;;;;;;;;;-145.06;0.00;60892.56;4738169;29;19915;-86
2022/04/26 09:15:54;;;;;;;;;;;;;;;-145.06;0.00;60892.56;4725597;29;19919;-86
2022/04/26 09:18:33;;;;;;;;;;;;;;;-145.06;0.00;60892.56;4710422;29;20294;-85
2022/04/26 09:21:12;;;;;;;;;;;;;;;-145.06;0.00;60892.56;4709369;29;19919;-86
2022/04/26 09:23:50;;;;;;;;;;;;;;;-145.06;0.00;60892.56;4709120;29;20485;-85
2022/04/26 09:26:34;;;;;;;;;;;;;;;-145.06;0.00;60892.56;4708056;29;19920;-86
2022/04/26 09:29:21;;;;;;;;;;;;;;;-145.06;0.00;60892.56;4703935;29;20667;-85
2022/04/26 09:32:03;;;;;;;;;;;;;;;-145.06;0.00;60892.56;4711034;29;19920;-86
2022/04/26 09:34:42;;;;;;;;;;;;;;;-145.06;0.00;60892.56;4725977;29;19920;-86
2022/04/26 09:37:22;;;;;;;;;;;;;;;-145.06;0.00;60892.56;4708500;29;20006;-86
2022/04/26 09:40:02;;;;;;;;;;;;;;;-145.06;0.00;60892.56;4706694;29;19923;-85
2022/04/26 09:42:41;;;;;;;;;;;;;;;-145.06;0.00;60892.56;4704738;29;19919;-86
2022/04/26 09:45:20;;;;;;;;;;;;;;;-145.06;0.00;60892.56;4708302;29;19959;-86
2022/04/26 09:47:59;;;;;;;;;;;;;;;-145.06;0.00;60892.56;4715389;29;20522;-86
2022/04/26 09:50:38;;;;;;;;;;;;;;;-145.06;0.00;60892.56;4705840;29;20283;-86
2022/04/26 09:53:17;;;;;;;;;;;;;;;-145.06;0.00;60892.56;4714210;29;19919;-85
2022/04/26 09:55:56;;;;;;;;;;;;;;;-145.06;0.00;60892.56;4707527;29;19919;-86
2022/04/26 09:58:37;;;;;;;;;;;;;;;-145.06;0.00;60892.56;4711096;29;19928;-87
2022/04/26 10:01:16;;;;;;;;;;;;;;;-145.06;0.00;60892.56;4727665;29;19919;-86
2022/04/26 10:04:02;;;;;;;;;;;;;;;-145.06;0.00;60892.56;4725192;29;19920;-86
2022/04/26 10:06:42;;;;;;;;;;;;;;;-145.06;0.00;60892.56;4714051;29;19920;-87
2022/04/26 10:09:22;;;;;;;;;;;;;;;-145.06;0.00;60892.56;4734940;29;19924;-86
2022/04/26 10:12:02;;;;;;;;;;;;;;;-145.06;0.00;60892.56;4719634;29;19923;-84
2022/04/26 10:14:42;;;;;;;;;;;;;;;-145.06;0.00;60892.56;4710299;29;19920;-85
2022/04/26 10:17:21;;;;;;;;;;;;;;;-145.06;0.00;60892.56;4713753;29;19920;-86
2022/04/26 10:20:00;;;;;;;;;;;;;;;-145.06;0.00;60892.56;4719850;29;19924;-85
2022/04/26 10:22:54;;;;;;;;;;;;;;;-145.06;0.00;60892.56;4727346;29;19920;-86
2022/04/26 10:25:33;;;;;;;;;;;;;;;-145.06;0.00;60892.56;4724199;29;19920;-85
2022/04/26 10:28:26;;;;;;;;;;;;;;;-145.06;0.00;60892.56;4712211;29;19924;-86
2022/04/26 10:31:10;;;;;;;;;;;;;;;-145.06;0.00;60892.56;4704204;29;19928;-87
2022/04/26 10:33:49;;;;;;;;;;;;;;;-145.06;0.00;60892.56;4703048;29;19919;-86
2022/04/26 10:36:28;;;;;;;;;;;;;;;10.52;0.00;60892.56;4714740;29;19919;-86
2022/04/26 10:39:13;;;;;;;;;;;;;;;10.68;0.00;60892.56;4714005;29;19919;-86
2022/04/26 10:41:53;;;;;;;;;;;;;;;10.52;0.00;60892.56;4711257;29;19966;-86
2022/04/26 10:44:37;;;;;;;;;;;;;;;10.56;0.00;60892.56;4733575;29;19919;-86
2022/04/26 10:47:18;;;;;;;;;;;;;;;10.58;0.00;60892.56;4713273;29;19923;-85
2022/04/26 10:49:58;;;;;;;;;;;;;;;10.68;0.00;60892.56;4727864;29;19919;-86
2022/04/26 10:52:40;;;;;;;;;;;;;;;10.68;0.00;60892.56;4737735;29;20412;-86
2022/04/26 10:55:25;;;;;;;;;;;;;;;-145.06;0.00;60892.56;4720763;29;20404;-86
2022/04/26 10:58:04;;;;;;;;;;;;;;;-145.06;0.00;60892.56;4716571;29;19919;-86
2022/04/26 11:00:44;;;;;;;;;;;;;;;-145.06;0.00;60892.56;4715452;29;19919;-87
2022/04/26 11:03:23;;;;;;;;;;;;;;;-145.06;0.00;60892.56;4716279;29;19924;-85
2022/04/26 11:06:05;;;;;;;;;;;;;;;-145.06;0.00;60892.56;4737721;29;19923;-85
2022/04/26 11:08:44;;;;;;;;;;;;;;;-145.06;0.00;60892.56;4714456;29;19931;-87
2022/04/26 11:11:23;;;;;;;;;;;;;;;-145.06;0.00;60892.56;4708080;29;19923;-86
2022/04/26 11:14:03;;;;;;;;;;;;;;;-145.06;0.00;60892.56;4715523;29;19920;-87
2022/04/26 11:16:58;;;;;;;;;;;;;;;-145.06;0.00;60892.56;4728824;29;19923;-86
2022/04/26 11:19:38;;;;;;;;;;;;;;;-145.06;0.00;60892.56;4712535;29;19928;-86
2022/04/26 11:22:18;;;;;;;;;;;;;;;-145.06;0.00;60892.56;4712200;29;19919;-86
2022/04/26 11:28:06;;;;;;;;;;;;;;;-145.06;0.00;60892.56;4721089;29;19920;-87
2022/04/26 11:30:45;;;;;;;;;;;;;;;-145.06;0.00;60892.56;4705415;29;19924;-88
2022/04/26 11:33:25;;;;;;;;;;;;;;;-145.06;0.00;60892.56;4713776;29;19927;-86
2022/04/26 11:36:05;;;;;;;;;;;;;;;-145.06;0.00;60892.56;4708588;29;19924;-86
2022/04/26 11:38:54;;;;;;;;;;;;;;;-145.06;0.00;60892.56;4710508;29;20385;-87
2022/04/26 11:41:33;;;;;;;;;;;;;;;-145.06;0.00;60892.56;4702336;29;19916;-86
2022/04/26 11:44:12;;;;;;;;;;;;;;;-145.06;0.00;60892.56;4732107;29;19919;-87
2022/04/26 11:46:59;;;;;;;;;;;;;;;-145.06;0.00;60892.56;4705421;29;19920;-86
2022/04/26 11:49:38;;;;;;;;;;;;;;;-145.06;0.00;60892.56;4702980;29;19919;-87
2022/04/26 11:52:23;;;;;;;;;;;;;;;-145.06;0.00;60892.56;4718321;29;19919;-86
2022/04/26 11:55:04;;;;;;;;;;;;;;;-145.06;0.00;60892.56;4718553;29;19947;-86
2022/04/26 11:57:45;;;;;;;;;;;;;;;-145.06;0.00;60892.56;4711655;29;19919;-87
2022/04/26 12:00:24;;;;;;;;;;;;;;;-145.06;0.00;60892.56;4737977;29;20717;-86
2022/04/26 12:03:05;;;;;;;;;;;;;;;-145.06;0.00;60892.56;4711324;29;19919;-87
2022/04/26 12:05:46;;;;;;;;;;;;;;;-145.06;0.00;60892.56;4720489;29;20295;-86
2022/04/26 12:08:26;;;;;;;;;;;;;;;-145.06;0.00;60892.56;4708742;29;20387;-86
2022/04/26 12:11:24;;;;;;;;;;;;;;;-145.06;0.00;60892.56;4711406;29;19928;-86
2022/04/26 12:14:06;;;;;;;;;;;;;;;-145.06;0.00;60892.56;4712318;29;20033;-86
2022/04/26 12:16:48;;;;;;;;;;;;;;;-145.06;0.00;60892.56;4706951;29;20014;-87
2022/04/26 12:19:35;;;;;;;;;;;;;;;-145.06;0.00;60892.56;4708097;29;19920;-87
2022/04/26 12:22:13;;;;;;;;;;;;;;;-145.06;0.00;60892.56;4713756;29;19919;-87
2022/04/26 12:24:52;;;;;;;;;;;;;;;-145.06;0.00;60892.56;4720951;29;19915;-87
2022/04/26 12:27:33;;;;;;;;;;;;;;;-145.06;0.00;60892.56;4706931;29;20273;-87
2022/04/26 12:30:12;;;;;;;;;;;;;;;-145.06;0.00;60892.56;4710024;29;19920;-86
2022/04/26 12:32:51;;;;;;;;;;;;;;;-145.06;0.00;60892.56;4705697;29;20546;-86
2022/04/26 12:35:30;;;;;;;;;;;;;;;-145.06;0.00;60892.56;4693954;29;20011;-86
2022/04/26 12:38:09;;;;;;;;;;;;;;;-145.06;0.00;60892.56;4711750;29;19915;-86
2022/04/26 12:40:59;;;;;;;;;;;;;;;-145.06;0.00;60892.56;4710793;29;20539;-87
2022/04/26 12:43:38;;;;;;;;;;;;;;;-145.06;0.00;60892.56;4711560;29;19923;-86
2022/04/26 12:46:17;;;;;;;;;;;;;;;-145.06;0.00;60892.56;4711683;29;19916;-88
2022/04/26 12:52:00;;;;;;;;;;;;;;;-145.06;0.00;60892.56;4732545;29;19994;-87
2022/04/26 12:54:41;;;;;;;;;;;;;;;-145.06;0.00;60892.56;4723963;29;19923;-86
2022/04/26 12:57:20;;;;;;;;;;;;;;;-145.06;0.00;60892.56;4714081;29;19920;-86
2022/04/26 13:00:02;;;;;;;;;;;;;;;-145.06;0.00;60892.56;4714308;23;19936;-87
2022/04/26 13:02:41;;;;;;;;;;;;;;;-145.06;0.00;60892.56;4715077;29;19962;-86
2022/04/26 13:05:21;;;;;;;;;;;;;;;12.97;0.00;60892.56;4684422;29;19920;-86
2022/04/26 13:08:00;;;;;;;;;;;;;;;13.20;0.00;60892.56;4686532;29;19924;-85
2022/04/26 13:10:40;;;;;;;;;;;;;;;-145.06;0.00;60892.56;4710321;29;19958;-85
2022/04/26 13:13:19;;;;;;;;;;;;;;;-145.06;0.00;60892.56;4690675;29;19920;-87
2022/04/26 13:15:59;;;;;;;;;;;;;;;-145.06;0.00;60892.56;4714068;29;19920;-86
2022/04/26 13:18:38;;;;;;;;;;;;;;;-145.06;0.00;60892.56;4698565;29;19923;-86
2022/04/26 13:21:17;;;;;;;;;;;;;;;-145.06;0.00;60892.56;4687689;29;19951;-85
2022/04/26 13:23:57;;;;;;;;;;;;;;;-145.06;0.00;60892.56;4693058;29;20274;-85
2022/04/26 13:26:36;;;;;;;;;;;;;;;-145.06;0.00;60892.56;4692585;29;19924;-85
2022/04/26 13:29:15;;;;;;;;;;;;;;;14.32;0.00;60892.56;4696348;29;19927;-85
2022/04/26 13:31:54;;;;;;;;;;;;;;;14.46;0.00;60892.56;4705523;29;20503;-85
2022/04/26 13:34:33;;;;;;;;;;;;;;;-145.06;0.00;60892.56;4721200;29;19920;-85
2022/04/26 13:37:12;;;;;;;;;;;;;;;-145.06;0.00;60892.56;4720860;29;20516;-87
2022/04/26 13:39:51;;;;;;;;;;;;;;;-145.06;0.00;60892.56;4710662;29;19919;-86
2022/04/26 13:42:31;;;;;;;;;;;;;;;-145.06;0.00;60892.56;4705423;29;19920;-86
2022/04/26 13:45:10;;;;;;;;;;;;;;;-145.06;0.00;60892.56;4699380;29;19924;-87
2022/04/26 13:47:51;;;;;;;;;;;;;;;-145.06;0.00;60892.56;4697055;29;19927;-87
2022/04/26 13:50:30;;;;;;;;;;;;;;;-145.06;0.00;60892.56;4694604;29;19927;-86
2022/04/26 13:53:09;;;;;;;;;;;;;;;-145.06;0.00;60892.56;4692130;29;19959;-86
2022/04/26 13:55:48;;;;;;;;;;;;;;;-145.06;0.00;60892.56;4716026;29;19962;-86
2022/04/26 13:58:27;;;;;;;;;;;;;;;-145.06;0.00;60892.56;4698803;29;19967;-87
2022/04/26 14:01:06;;;;;;;;;;;;;;;-145.06;0.00;60892.56;4693788;29;19962;-86
2022/04/26 14:03:45;;;;;;;;;;;;;;;-145.06;0.00;60892.56;4695457;29;19924;-85
2022/04/26 14:06:24;;;;;;;;;;;;;;;-145.06;0.00;60892.56;4700556;29;19924;-86
2022/04/26 14:09:03;;;;;;;;;;;;;;;-145.06;0.00;60892.56;4681418;29;19920;-85
2022/04/26 14:11:42;;;;;;;;;;;;;;;-145.06;0.00;60892.56;4709671;29;19919;-87
2022/04/26 14:23:19;;;;;;;;;;;;;;;-145.06;0.00;60892.56;4697953;29;19920;-85
2022/04/26 14:25:58;;;;;;;;;;;;;;;-145.06;0.00;60892.56;4699772;29;19955;-86
2022/04/26 14:28:37;;;;;;;;;;;;;;;-145.06;0.00;60892.56;4694268;29;19928;-86
2022/04/26 14:31:16;;;;;;;;;;;;;;;-145.06;0.00;60892.56;4694408;29;19999;-86
2022/04/26 14:33:55;;;;;;;;;;;;;;;-145.06;0.00;60892.56;4685778;29;20370;-87
2022/04/26 14:36:34;;;;;;;;;;;;;;;-145.06;0.00;60892.56;4687366;29;19916;-86
2022/04/26 14:39:13;;;;;;;;;;;;;;;-145.06;0.00;60892.56;4696302;29;19923;-85
2022/04/26 14:41:53;;;;;;;;;;;;;;;-145.06;0.00;60892.56;4693803;29;19920;-86
2022/04/26 14:44:32;;;;;;;;;;;;;;;-145.06;0.00;60892.56;4711786;29;19920;-86
2022/04/26 14:47:12;;;;;;;;;;;;;;;-145.06;0.00;60892.56;4696847;29;19919;-85
2022/04/26 14:49:51;;;;;;;;;;;;;;;-145.06;0.00;60892.56;4688806;29;19919;-87
2022/04/26 14:52:30;;;;;;;;;;;;;;;-145.06;0.00;60892.56;4694325;29;19920;-85
2022/04/26 14:55:10;;;;;;;;;;;;;;;-145.06;0.00;60892.56;4691385;29;19967;-87
2022/04/26 14:57:49;;;;;;;;;;;;;;;-145.06;0.00;60892.56;4694527;29;19967;-87
2022/04/26 15:00:28;;;;;;;;;;;;;;;-145.06;0.00;60892.56;4698924;29;19920;-87
2022/04/26 15:03:07;;;;;;;;;;;;;;;-145.06;0.00;60892.56;4696345;29;19920;-86
2022/04/26 15:05:46;;;;;;;;;;;;;;;-145.06;0.00;60892.56;4702322;29;19924;-88
2022/04/26 15:11:23;;;;;;;;;;;;;;;-145.06;0.00;60892.56;4722023;29;19967;-86
2022/04/26 15:17:01;;;;;;;;;;;;;;;-145.06;0.00;60892.56;4708690;29;19920;-85
2022/04/26 15:19:41;;;;;;;;;;;;;;;15.88;0.00;60892.56;4701919;29;19928;-86
2022/04/26 15:22:20;;;;;;;;;;;;;;;-145.06;0.00;60892.56;4720646;29;20373;-86
2022/04/26 15:24:59;;;;;;;;;;;;;;;-145.06;0.00;60892.56;4690037;29;19923;-87
2022/04/26 15:27:39;;;;;;;;;;;;;;;-145.06;0.00;60892.56;4714370;29;19919;-86
2022/04/26 15:30:17;;;;;;;;;;;;;;;-145.06;0.00;60892.56;4691360;29;19924;-87
2022/04/26 15:32:56;;;;;;;;;;;;;;;-145.06;0.00;60892.56;4693795;29;19920;-86
2022/04/26 15:35:36;;;;;;;;;;;;;;;-145.06;0.00;60892.56;4714597;29;19920;-86
2022/04/26 15:38:15;;;;;;;;;;;;;;;-145.06;0.00;60892.56;4700765;29;19920;-86
2022/04/26 15:40:54;;;;;;;;;;;;;;;-145.06;0.00;60892.56;4704150;29;19923;-86
2022/04/26 15:43:34;;;;;;;;;;;;;;;-145.06;0.00;60892.56;4712365;29;19924;-86
2022/04/26 15:46:13;;;;;;;;;;;;;;;14.52;0.00;60892.56;4697530;29;19941;-86
2022/04/26 15:48:52;;;;;;;;;;;;;;;14.45;0.00;60892.56;4693535;29;20018;-87
2022/04/26 15:51:31;;;;;;;;;;;;;;;14.40;0.00;60892.56;4712230;29;19919;-85
2022/04/26 15:54:10;;;;;;;;;;;;;;;14.36;0.00;60892.56;4691586;29;20337;-86
2022/04/26 15:56:49;;;;;;;;;;;;;;;14.29;0.00;60892.56;4708984;29;19916;-87
2022/04/26 15:59:28;;;;;;;;;;;;;;;-145.06;0.00;60892.56;4708543;29;20246;-86
2022/04/26 16:02:07;;;;;;;;;;;;;;;-145.06;0.00;60892.56;4711287;29;19920;-86
2022/04/26 16:04:46;;;;;;;;;;;;;;;-145.06;0.00;60892.56;4701754;29;19955;-85
2022/04/26 16:07:25;;;;;;;;;;;;;;;-145.06;0.00;60892.56;4710804;29;20258;-87
2022/04/26 16:21:56;;;;;;;;;;;;;;;-145.06;0.00;60892.56;4715223;29;20469;-86
2022/04/26 16:24:38;;;;;;;;;;;;;;;-145.06;0.00;60892.56;4689869;29;19919;-86
2022/04/26 16:27:17;;;;;;;;;;;;;;;-145.06;0.00;60892.56;4691649;29;19928;-86
2022/04/26 16:29:56;;;;;;;;;;;;;;;-145.06;0.00;60892.56;4718408;29;19923;-86
2022/04/26 16:32:35;;;;;;;;;;;;;;;-145.06;0.00;60892.56;4698579;29;19963;-85
2022/04/26 16:35:14;;;;;;;;;;;;;;;-145.06;0.00;60892.56;4695191;29;19924;-85
2022/04/26 16:37:55;;;;;;;;;;;;;;;-145.06;0.00;60892.56;4696086;29;19923;-86
2022/04/26 16:40:34;;;;;;;;;;;;;;;-145.06;0.00;60892.56;4703287;29;19923;-86
2022/04/26 16:43:16;;;;;;;;;;;;;;;-145.06;0.00;60892.56;4709579;29;19924;-87
2022/04/26 16:45:56;;;;;;;;;;;;;;;-145.06;0.00;60892.56;4698841;29;19919;-86
2022/04/26 16:48:35;;;;;;;;;;;;;;;-145.06;0.00;60892.56;4712029;29;19986;-86
2022/04/26 16:51:19;;;;;;;;;;;;;;;15.88;0.00;60892.56;4690011;29;19919;-86
2022/04/26 16:53:58;;;;;;;;;;;;;;;-145.06;0.00;60892.56;4691301;29;19920;-86
2022/04/26 16:56:37;;;;;;;;;;;;;;;-145.06;0.00;60892.56;4686880;29;19959;-86
2022/04/26 16:59:17;;;;;;;;;;;;;;;15.88;0.00;60892.56;4691177;29;19919;-86
2022/04/26 17:01:57;;;;;;;;;;;;;;;-145.06;0.00;60892.56;4692920;29;19920;-86
2022/04/26 17:04:36;;;;;;;;;;;;;;;-145.06;0.00;60892.56;4692537;29;20010;-86
2022/04/26 17:07:15;;;;;;;;;;;;;;;-145.06;0.00;60892.56;4694824;29;19920;-87
2022/04/26 17:09:54;;;;;;;;;;;;;;;-145.06;0.00;60892.56;4696366;29;20382;-86
2022/04/26 17:12:33;;;;;;;;;;;;;;;187.52;0.00;60892.56;4721039;29;19920;-86
2022/04/26 17:15:15;;;;;;;;;;;;;;;-145.06;0.00;60892.56;4696172;29;19924;-87
2022/04/26 17:17:54;;;;;;;;;;;;;;;-145.06;0.00;60892.56;4696914;29;19924;-86
2022/04/26 17:20:34;;;;;;;;;;;;;;;-145.06;0.00;60892.56;4704201;29;19919;-86
2022/04/26 17:23:14;;;;;;;;;;;;;;;-145.06;0.00;60892.56;4718315;29;19924;-86
2022/04/26 17:25:54;;;;;;;;;;;;;;;187.52;0.00;60892.56;4696930;29;20377;-86
2022/04/26 17:28:32;;;;;;;;;;;;;;;-145.06;0.00;60892.56;4700056;29;19986;-86
2022/04/26 17:31:14;;;;;;;;;;;;;;;-145.06;0.00;60892.56;4712376;29;19964;-87
2022/04/26 17:33:55;;;;;;;;;;;;;;;-145.06;0.00;60892.56;4679180;29;19963;-85
2022/04/26 17:36:33;;;;;;;;;;;;;;;-145.06;0.00;60892.56;4698990;29;19923;-89
2022/04/26 17:39:12;;;;;;;;;;;;;;;-145.06;0.00;60892.56;4697886;29;19920;-86
2022/04/26 17:41:55;;;;;;;;;;;;;;;13.25;0.00;60892.56;4701405;29;19920;-86
2022/04/26 17:44:35;;;;;;;;;;;;;;;13.22;0.00;60892.56;4709974;29;19935;-87
2022/04/26 17:47:14;;;;;;;;;;;;;;;13.19;0.00;60892.56;4696904;29;19947;-86
2022/04/26 17:49:53;;;;;;;;;;;;;;;13.18;0.00;60892.56;4703740;29;19924;-86
2022/04/26 17:52:33;;;;;;;;;;;;;;;13.17;0.00;60892.56;4699585;29;19955;-86
2022/04/26 17:58:09;;;;;;;;;;;;;;;13.14;0.00;60892.56;4711054;29;19924;-85
2022/04/26 18:00:48;;;;;;;;;;;;;;;13.15;0.00;60892.56;4703514;29;19970;-87
2022/04/26 18:03:27;;;;;;;;;;;;;;;13.15;0.00;60892.56;4694749;29;19955;-87
2022/04/26 18:06:08;;;;;;;;;;;;;;;13.20;0.00;60892.56;4715404;29;20402;-86
2022/04/26 18:08:47;;;;;;;;;;;;;;;13.17;0.00;60892.56;4701046;29;19927;-87
2022/04/26 18:11:26;;;;;;;;;;;;;;;15.88;0.00;60892.56;4693322;29;19916;-87